Terminal Aerodrome Forecast
Issued by NWS

Home | Current Version | Previous Version | Text Only | Print | Product List | Glossary On
Versions: 1 2 3 4 5 6 7 8 9 10 11 12 13 14 15 16
000
FTUS44 KMAF 061742
TAFINK
TAF
KINK 061742Z 0618/0718 14020G30KT P6SM SKC
     FM062200 14020G30KT P6SM SCT120 SCT200
     FM070100 14020G30KT P6SM BKN120
     FM070500 13016KT P6SM SCT250
     FM071200 12012KT P6SM SCT250=

USA.gov is the U.S. government's official web portal to all federal, state and local government web resources and services.